createdAt,value
2022-11-16T00:04:38.923Z,5.76
2022-11-16T00:09:42.134Z,5.78
2022-11-16T00:14:45.235Z,5.81
2022-11-16T00:19:48.854Z,5.82
2022-11-16T00:24:52.164Z,5.83
2022-11-16T00:29:55.496Z,5.86
2022-11-16T00:34:59.097Z,5.89
2022-11-16T00:40:02.209Z,5.91
2022-11-16T00:45:06.020Z,5.93
2022-11-16T00:50:09.639Z,5.94
2022-11-16T00:55:12.844Z,5.94
2022-11-16T01:00:16.660Z,5.94
2022-11-16T01:05:19.774Z,5.94
2022-11-16T01:10:25.232Z,5.95
2022-11-16T01:15:28.850Z,5.96
2022-11-16T01:20:32.264Z,5.97
2022-11-16T01:25:35.577Z,5.99
2022-11-16T01:30:38.782Z,6.00
2022-11-16T01:35:45.370Z,6.01
2022-11-16T01:40:48.679Z,6.02
2022-11-16T01:45:52.301Z,6.02
2022-11-16T01:50:56.732Z,6.02
2022-11-16T01:56:00.427Z,6.03
2022-11-16T02:01:04.215Z,6.02
2022-11-16T02:06:23.763Z,6.02
2022-11-16T02:11:45.916Z,6.02
2022-11-16T02:16:58.236Z,6.01
2022-11-16T02:22:13.937Z,5.99
2022-11-16T02:27:23.440Z,5.99
2022-11-16T02:32:45.850Z,5.97
2022-11-16T02:37:59.551Z,5.95
2022-11-16T02:43:09.516Z,5.93
2022-11-16T02:48:20.050Z,5.91
2022-11-16T02:53:25.407Z,5.88
2022-11-16T02:58:29.677Z,5.84
2022-11-16T03:03:38.888Z,5.82
2022-11-16T03:08:51.216Z,5.80
2022-11-16T03:14:17.562Z,5.75
2022-11-16T03:19:29.369Z,5.70
2022-11-16T03:24:33.334Z,5.65
2022-11-16T03:30:01.518Z,5.60
2022-11-16T03:35:30.912Z,5.56
2022-11-16T03:40:36.933Z,5.52
2022-11-16T03:45:41.510Z,5.50
2022-11-16T03:50:45.815Z,5.46
2022-11-16T03:55:50.076Z,5.44
2022-11-16T04:00:54.706Z,5.41
2022-11-16T04:06:17.805Z,5.38
2022-11-16T04:11:41.599Z,5.35
2022-11-16T04:17:03.849Z,5.33
2022-11-16T04:22:37.384Z,5.28
2022-11-16T04:27:59.828Z,5.22
2022-11-16T04:33:22.186Z,5.13
2022-11-16T04:38:25.599Z,5.03
2022-11-16T04:43:29.121Z,4.92
2022-11-16T04:48:32.453Z,4.83
2022-11-16T04:53:35.942Z,4.79
2022-11-16T04:58:39.247Z,4.77
2022-11-16T05:03:42.352Z,4.76
2022-11-16T05:08:45.868Z,4.76
2022-11-16T05:13:50.172Z,4.74
2022-11-16T05:19:12.771Z,4.72
2022-11-16T05:24:34.922Z,4.67
2022-11-16T05:29:39.560Z,4.58
2022-11-16T05:34:42.767Z,4.49
2022-11-16T05:39:45.977Z,4.37
2022-11-16T05:44:50.991Z,4.24
2022-11-16T05:49:54.543Z,4.10
2022-11-16T05:54:58.277Z,4.00
2022-11-16T06:00:02.740Z,3.93
2022-11-16T06:05:07.742Z,3.86
2022-11-16T06:10:12.527Z,3.83
2022-11-16T06:15:16.846Z,3.88
2022-11-16T06:20:21.752Z,3.93
2022-11-16T06:25:26.880Z,3.97
2022-11-16T06:30:31.558Z,4.01
2022-11-16T06:35:35.603Z,4.05
2022-11-16T06:40:39.060Z,4.09
2022-11-16T06:45:42.526Z,4.12
2022-11-16T06:50:45.835Z,4.06
2022-11-16T06:55:49.452Z,3.97
2022-11-16T07:00:52.764Z,3.88
2022-11-16T07:05:56.177Z,3.79
2022-11-16T07:11:04.470Z,3.75
2022-11-16T07:16:10.367Z,3.77
2022-11-16T07:21:16.754Z,3.77
2022-11-16T07:26:20.901Z,3.75
2022-11-16T07:31:24.400Z,3.75
2022-11-16T07:36:28.223Z,3.69
2022-11-16T07:41:31.334Z,3.70
2022-11-16T07:46:50.236Z,3.70
2022-11-16T07:51:53.511Z,3.70
2022-11-16T07:56:56.822Z,3.69
2022-11-16T08:02:00.133Z,3.71
2022-11-16T08:07:03.679Z,3.84
2022-11-16T08:12:07.572Z,4.29
2022-11-16T08:17:10.882Z,5.85
2022-11-16T08:22:14.195Z,6.35
2022-11-16T08:27:17.871Z,5.48
2022-11-16T08:32:21.121Z,4.86
2022-11-16T08:37:25.729Z,4.45
2022-11-16T08:42:28.763Z,4.13
2022-11-16T08:47:32.284Z,3.91
2022-11-16T08:52:35.492Z,3.73
2022-11-16T08:57:38.591Z,3.60
2022-11-16T09:02:41.818Z,3.50
2022-11-16T09:07:46.038Z,3.46
2022-11-16T09:12:50.571Z,3.44
2022-11-16T09:17:55.211Z,3.47
2022-11-16T09:22:58.419Z,3.43
2022-11-16T09:28:01.527Z,3.44
2022-11-16T09:33:04.938Z,3.44
2022-11-16T09:38:11.797Z,3.51
2022-11-16T09:43:47.230Z,3.44
2022-11-16T09:48:51.400Z,3.39
2022-11-16T09:54:04.771Z,3.32
2022-11-16T09:59:20.063Z,3.35
2022-11-16T10:04:26.520Z,3.35
2022-11-16T10:09:30.547Z,3.29
2022-11-16T10:14:51.599Z,3.26
2022-11-16T10:20:30.408Z,3.29
2022-11-16T10:26:01.092Z,3.34
2022-11-16T10:31:36.351Z,3.30
2022-11-16T10:36:40.071Z,3.26
2022-11-16T10:41:47.189Z,3.26
2022-11-16T10:47:36.868Z,3.24
2022-11-16T10:52:39.974Z,3.17
2022-11-16T10:57:56.067Z,3.20
2022-11-16T11:02:59.189Z,3.21
2022-11-16T11:08:11.612Z,3.17
2022-11-16T11:13:14.721Z,3.08
2022-11-16T11:18:23.772Z,2.99
2022-11-16T11:23:27.996Z,2.93
2022-11-16T11:28:33.835Z,2.88
2022-11-16T11:33:41.164Z,2.85
2022-11-16T11:39:05.183Z,2.85
2022-11-16T11:44:14.317Z,2.88
2022-11-16T11:49:33.243Z,2.91
2022-11-16T11:54:46.132Z,2.90
2022-11-16T11:59:52.495Z,2.90
2022-11-16T12:05:11.781Z,2.86
2022-11-16T12:10:33.835Z,2.82
2022-11-16T12:15:59.056Z,2.79
2022-11-16T12:21:20.186Z,2.71
2022-11-16T12:26:33.023Z,2.62
2022-11-16T12:31:39.603Z,2.54
2022-11-16T12:37:01.755Z,2.50
2022-11-16T12:42:38.246Z,2.50
2022-11-16T12:48:20.167Z,2.52
2022-11-16T12:53:38.976Z,2.57
2022-11-16T12:59:09.687Z,2.60
2022-11-16T13:04:26.152Z,2.59
2022-11-16T13:09:37.914Z,2.56
2022-11-16T13:14:45.525Z,2.56
2022-11-16T13:19:58.564Z,2.58
2022-11-16T13:25:33.926Z,2.59
2022-11-16T13:31:03.348Z,2.62
2022-11-16T13:36:39.632Z,2.64
2022-11-16T13:41:45.503Z,2.64
2022-11-16T13:46:56.503Z,2.62
2022-11-16T13:52:23.200Z,2.59
2022-11-16T13:57:32.284Z,2.56
2022-11-16T14:02:38.170Z,2.52
2022-11-16T14:07:50.052Z,2.51
2022-11-16T14:12:55.579Z,2.51
2022-11-16T14:18:20.453Z,2.49
2022-11-16T14:23:48.754Z,2.48
2022-11-16T14:29:13.154Z,2.48
2022-11-16T14:34:41.959Z,2.51
2022-11-16T14:39:45.781Z,2.51
2022-11-16T14:44:50.544Z,2.52
2022-11-16T14:49:55.579Z,2.53
2022-11-16T14:55:02.060Z,2.52
2022-11-16T15:00:20.116Z,2.54
2022-11-16T15:05:28.558Z,2.55
2022-11-16T15:10:31.856Z,2.55
2022-11-16T15:15:35.168Z,2.54
2022-11-16T15:20:49.096Z,2.55
2022-11-16T15:25:58.026Z,2.55
2022-11-16T15:31:04.706Z,2.54
2022-11-16T15:36:38.178Z,2.56
2022-11-16T15:41:42.568Z,2.57
2022-11-16T15:46:50.742Z,2.58
2022-11-16T15:51:53.942Z,2.60
2022-11-16T15:57:04.624Z,2.60
2022-11-16T16:02:20.330Z,2.62
2022-11-16T16:07:44.297Z,2.63
2022-11-16T16:12:50.498Z,2.63
2022-11-16T16:17:54.526Z,2.65
2022-11-16T16:23:09.527Z,2.66
2022-11-16T16:28:12.922Z,2.66
2022-11-16T16:33:20.050Z,2.65
2022-11-16T16:38:24.358Z,2.64
2022-11-16T16:43:28.278Z,2.63
2022-11-16T16:48:32.617Z,2.62
2022-11-16T16:53:36.588Z,2.62
2022-11-16T16:58:40.258Z,2.62
2022-11-16T17:03:43.778Z,2.60
2022-11-16T17:08:47.187Z,2.59
2022-11-16T17:13:50.701Z,2.58
2022-11-16T17:18:56.409Z,2.57
2022-11-16T17:23:59.578Z,2.54
2022-11-16T17:29:02.793Z,2.54
2022-11-16T17:34:10.715Z,2.52
2022-11-16T17:39:16.889Z,2.50
2022-11-16T17:44:22.017Z,2.49
2022-11-16T17:49:25.446Z,2.47
2022-11-16T17:54:28.553Z,2.44
2022-11-16T17:59:31.859Z,2.41
2022-11-16T18:04:36.224Z,2.36
2022-11-16T18:09:40.637Z,2.34
2022-11-16T18:14:59.889Z,2.33
2022-11-16T18:20:10.661Z,2.32
2022-11-16T18:25:14.933Z,2.34
2022-11-16T18:30:18.755Z,2.34
2022-11-16T18:35:22.900Z,2.34
2022-11-16T18:40:26.098Z,2.34
2022-11-16T18:45:31.570Z,2.34
2022-11-16T18:50:36.104Z,2.35
2022-11-16T18:55:39.506Z,2.35
2022-11-16T19:00:42.724Z,2.36
2022-11-16T19:05:46.335Z,2.37
2022-11-16T19:10:49.954Z,2.38
2022-11-16T19:15:55.822Z,2.39
2022-11-16T19:21:09.676Z,2.38
2022-11-16T19:26:15.854Z,2.38
2022-11-16T19:31:20.699Z,2.39
2022-11-16T19:36:25.955Z,2.37
2022-11-16T19:41:29.778Z,2.37
2022-11-16T19:46:34.930Z,2.36
2022-11-16T19:51:38.138Z,2.36
2022-11-16T19:56:43.086Z,2.36
2022-11-16T20:01:46.499Z,2.35
2022-11-16T20:06:49.748Z,2.35
2022-11-16T20:11:53.532Z,2.34
2022-11-16T20:16:56.950Z,2.34
2022-11-16T20:22:00.080Z,2.33
2022-11-16T20:27:04.388Z,2.34
2022-11-16T20:32:07.795Z,2.34
2022-11-16T20:37:12.084Z,2.34
2022-11-16T20:42:16.281Z,2.34
2022-11-16T20:47:19.770Z,2.33
2022-11-16T20:52:23.677Z,2.34
2022-11-16T20:57:27.111Z,2.34
2022-11-16T21:02:31.808Z,2.35
2022-11-16T21:07:35.335Z,2.36
2022-11-16T21:12:57.944Z,2.36
2022-11-16T21:18:01.763Z,2.37
2022-11-16T21:23:04.963Z,2.38
2022-11-16T21:28:08.272Z,2.38
2022-11-16T21:33:11.480Z,2.37
2022-11-16T21:38:14.687Z,2.37
2022-11-16T21:43:18.426Z,2.36
2022-11-16T21:48:21.512Z,2.35
2022-11-16T21:53:24.721Z,2.34
2022-11-16T21:58:28.024Z,2.34
2022-11-16T22:03:31.960Z,2.33
2022-11-16T22:08:35.379Z,2.33
2022-11-16T22:13:39.701Z,2.32
2022-11-16T22:18:43.632Z,2.32
2022-11-16T22:23:46.629Z,2.30
2022-11-16T22:28:50.041Z,2.29
2022-11-16T22:33:54.068Z,2.27
2022-11-16T22:38:57.381Z,2.27
2022-11-16T22:44:00.485Z,2.26
2022-11-16T22:49:03.694Z,2.26
2022-11-16T22:54:07.720Z,2.25
2022-11-16T22:59:10.927Z,2.23
2022-11-16T23:04:14.032Z,2.21
2022-11-16T23:09:17.248Z,2.19
2022-11-16T23:14:39.601Z,2.18
2022-11-16T23:20:01.137Z,2.17
2022-11-16T23:25:25.439Z,2.17
2022-11-16T23:30:28.750Z,2.16
2022-11-16T23:35:32.847Z,2.15
2022-11-16T23:40:38.589Z,2.15
2022-11-16T23:45:43.082Z,2.14
2022-11-16T23:50:46.907Z,2.13
2022-11-16T23:55:50.013Z,2.12
